createdAt,value
2023-03-02T00:00:23.519Z,-1.02
2023-03-02T00:03:13.488Z,-1.02
2023-03-02T00:06:02.579Z,-1.10
2023-03-02T00:08:52.452Z,-1.18
2023-03-02T00:11:41.464Z,-1.23
2023-03-02T00:14:32.972Z,-1.27
2023-03-02T00:17:28.093Z,-1.28
2023-03-02T00:20:18.617Z,-1.32
2023-03-02T00:23:07.653Z,-1.34
2023-03-02T00:25:58.256Z,-1.30
2023-03-02T00:28:47.557Z,-1.28
2023-03-02T00:31:38.086Z,-1.25
2023-03-02T00:34:27.397Z,-1.19
2023-03-02T00:37:16.391Z,-1.17
2023-03-02T00:40:07.878Z,-1.06
2023-03-02T00:42:56.944Z,-0.97
2023-03-02T00:45:45.923Z,-0.93
2023-03-02T00:48:34.972Z,-0.88
2023-03-02T00:51:26.652Z,-0.81
2023-03-02T00:54:15.895Z,-0.72
2023-03-02T00:57:05.085Z,-0.64
2023-03-02T00:59:54.246Z,-0.55
2023-03-02T01:02:47.246Z,-0.37
2023-03-02T01:05:38.182Z,-0.25
2023-03-02T01:08:27.662Z,-0.17
2023-03-02T01:11:18.656Z,-0.11
2023-03-02T01:14:07.810Z,-0.01
2023-03-02T01:16:56.851Z,0.07
2023-03-02T01:19:46.803Z,0.13
2023-03-02T01:22:36.106Z,0.07
2023-03-02T01:25:25.666Z,0.03
2023-03-02T01:28:15.199Z,-0.00
2023-03-02T01:31:04.878Z,0.01
2023-03-02T01:33:54.110Z,-0.03
2023-03-02T01:36:46.281Z,-0.02
2023-03-02T01:39:35.949Z,-0.01
2023-03-02T01:42:33.758Z,0.03
2023-03-02T01:45:53.562Z,0.07
2023-03-02T01:49:07.648Z,0.07
2023-03-02T01:52:13.842Z,0.07
2023-03-02T01:55:05.130Z,0.07
2023-03-02T01:57:54.182Z,0.07
2023-03-02T02:00:43.388Z,0.02
2023-03-02T02:03:33.107Z,-0.01
2023-03-02T02:06:26.045Z,-0.11
2023-03-02T02:09:15.587Z,-0.22
2023-03-02T02:12:13.760Z,-0.28
2023-03-02T02:15:03.104Z,-0.35
2023-03-02T02:17:54.481Z,-0.37
2023-03-02T02:20:47.500Z,-0.44
2023-03-02T02:23:59.924Z,-0.50
2023-03-02T02:26:51.150Z,-0.53
2023-03-02T02:29:46.569Z,-0.48
2023-03-02T02:32:36.513Z,-0.53
2023-03-02T02:35:27.451Z,-0.53
2023-03-02T02:38:18.499Z,-0.51
2023-03-02T02:41:08.639Z,-0.53
2023-03-02T02:43:58.646Z,-0.55
2023-03-02T02:46:49.305Z,-0.53
2023-03-02T02:49:41.884Z,-0.57
2023-03-02T02:52:31.706Z,-0.57
2023-03-02T02:55:23.648Z,-0.56
2023-03-02T02:58:28.476Z,-0.57
2023-03-02T03:01:19.364Z,-0.61
2023-03-02T03:04:10.689Z,-0.62
2023-03-02T03:07:02.896Z,-0.70
2023-03-02T03:10:35.193Z,-0.70
2023-03-02T03:13:26.098Z,-0.73
2023-03-02T03:16:16.379Z,-0.70
2023-03-02T03:19:18.353Z,-0.66
2023-03-02T03:22:08.488Z,-0.59
2023-03-02T03:24:59.038Z,-0.56
2023-03-02T03:27:48.817Z,-0.52
2023-03-02T03:30:38.434Z,-0.49
2023-03-02T03:33:30.525Z,-0.40
2023-03-02T03:36:19.490Z,-0.40
2023-03-02T03:39:09.268Z,-0.39
2023-03-02T03:41:59.318Z,-0.43
2023-03-02T03:44:48.806Z,-0.39
2023-03-02T03:47:38.204Z,-0.40
2023-03-02T03:50:27.929Z,-0.36
2023-03-02T03:53:17.656Z,-0.28
2023-03-02T03:56:07.526Z,-0.28
2023-03-02T03:59:06.849Z,-0.24
2023-03-02T04:02:03.897Z,-0.29
2023-03-02T04:05:06.464Z,-0.30
2023-03-02T04:07:55.529Z,-0.27
2023-03-02T04:10:45.406Z,-0.20
2023-03-02T04:13:34.757Z,-0.14
2023-03-02T04:16:23.896Z,-0.13
2023-03-02T04:19:17.768Z,-0.11
2023-03-02T04:22:09.092Z,-0.08
2023-03-02T04:25:02.111Z,-0.08
2023-03-02T04:27:51.670Z,-0.05
2023-03-02T04:30:44.878Z,-0.04
2023-03-02T04:33:36.126Z,0.01
2023-03-02T04:36:26.558Z,0.05
2023-03-02T04:39:16.532Z,0.05
2023-03-02T04:42:11.106Z,0.08
2023-03-02T04:45:00.180Z,0.11
2023-03-02T04:47:54.366Z,0.15
2023-03-02T04:50:44.947Z,0.18
2023-03-02T04:53:33.911Z,0.20
2023-03-02T04:56:23.136Z,0.24
2023-03-02T04:59:12.171Z,0.28
2023-03-02T05:02:02.461Z,0.31
2023-03-02T05:04:51.647Z,0.37
2023-03-02T05:07:41.006Z,0.40
2023-03-02T05:10:32.584Z,0.48
2023-03-02T05:13:21.911Z,0.53
2023-03-02T05:16:11.262Z,0.58
2023-03-02T05:19:01.107Z,0.68
2023-03-02T05:21:50.223Z,0.74
2023-03-02T05:24:39.409Z,0.85
2023-03-02T05:27:28.363Z,0.99
2023-03-02T05:30:17.724Z,1.04
2023-03-02T05:33:06.819Z,1.09
2023-03-02T05:35:58.353Z,1.16
2023-03-02T05:38:47.735Z,1.26
2023-03-02T05:41:38.720Z,1.30
2023-03-02T05:44:27.781Z,1.36
2023-03-02T05:47:16.991Z,1.42
2023-03-02T05:50:06.628Z,1.45
2023-03-02T05:52:57.135Z,1.57
2023-03-02T05:55:46.276Z,1.71
2023-03-02T05:58:35.354Z,1.81
2023-03-02T06:01:27.065Z,1.78
2023-03-02T06:04:16.491Z,1.81
2023-03-02T06:07:05.854Z,1.85
2023-03-02T06:09:54.961Z,1.88
2023-03-02T06:12:44.306Z,1.95
2023-03-02T06:15:39.805Z,2.04
2023-03-02T06:18:29.697Z,2.16
2023-03-02T06:21:18.799Z,2.29
2023-03-02T06:24:08.538Z,2.38
2023-03-02T06:26:57.501Z,2.47
2023-03-02T06:29:46.550Z,2.57
2023-03-02T06:32:35.674Z,2.70
2023-03-02T06:35:24.876Z,2.74
2023-03-02T06:38:14.103Z,2.84
2023-03-02T06:41:04.498Z,2.91
2023-03-02T06:43:53.501Z,2.99
2023-03-02T06:46:43.894Z,3.05
2023-03-02T06:49:33.203Z,3.19
2023-03-02T06:52:22.476Z,3.31
2023-03-02T06:55:11.440Z,3.42
2023-03-02T06:58:01.620Z,3.50
2023-03-02T07:00:50.932Z,3.58
2023-03-02T07:03:40.540Z,3.64
2023-03-02T07:06:30.610Z,3.71
2023-03-02T07:09:19.550Z,3.79
2023-03-02T07:12:08.697Z,3.82
2023-03-02T07:14:57.847Z,3.84
2023-03-02T07:17:47.721Z,3.89
2023-03-02T07:20:36.925Z,4.00
2023-03-02T07:23:27.556Z,4.16
2023-03-02T07:26:16.548Z,4.23
2023-03-02T07:29:05.877Z,4.30
2023-03-02T07:31:57.387Z,4.31
2023-03-02T07:34:46.673Z,4.40
2023-03-02T07:37:35.709Z,4.46
2023-03-02T07:40:24.820Z,4.53
2023-03-02T07:43:13.909Z,4.57
2023-03-02T07:46:04.931Z,4.69
2023-03-02T07:48:54.137Z,4.88
2023-03-02T07:51:43.668Z,5.01
2023-03-02T07:54:33.708Z,5.21
2023-03-02T07:57:22.737Z,5.36
2023-03-02T08:00:12.175Z,5.46
2023-03-02T08:03:01.387Z,5.46
2023-03-02T08:05:52.517Z,5.55
2023-03-02T08:08:42.020Z,5.65
2023-03-02T08:11:31.636Z,5.71
2023-03-02T08:14:20.868Z,5.85
2023-03-02T08:17:09.821Z,5.92
2023-03-02T08:19:59.558Z,5.95
2023-03-02T08:22:48.643Z,5.89
2023-03-02T08:25:42.528Z,5.97
2023-03-02T08:28:31.521Z,6.10
2023-03-02T08:31:20.505Z,6.02
2023-03-02T08:34:09.794Z,6.06
2023-03-02T08:36:58.947Z,6.15
2023-03-02T08:39:48.563Z,6.30
2023-03-02T08:42:38.740Z,6.40
2023-03-02T08:45:28.343Z,6.44
2023-03-02T08:48:18.058Z,6.44
2023-03-02T08:51:13.311Z,6.46
2023-03-02T08:54:03.134Z,6.45
2023-03-02T08:56:52.271Z,6.56
2023-03-02T08:59:41.746Z,6.52
2023-03-02T09:02:31.002Z,6.46
2023-03-02T09:05:20.181Z,6.48
2023-03-02T09:08:10.481Z,6.54
2023-03-02T09:11:01.663Z,6.66
2023-03-02T09:13:50.906Z,6.65
2023-03-02T09:16:40.394Z,6.70
2023-03-02T09:19:29.610Z,6.77
2023-03-02T09:22:19.361Z,6.88
2023-03-02T09:25:09.426Z,6.84
2023-03-02T09:27:58.583Z,6.91
2023-03-02T09:30:57.953Z,7.00
2023-03-02T09:33:47.374Z,7.05
2023-03-02T09:36:38.068Z,7.09
2023-03-02T09:39:27.370Z,7.08
2023-03-02T09:42:43.101Z,7.16
2023-03-02T09:46:04.334Z,7.33
2023-03-02T09:48:53.644Z,7.39
2023-03-02T09:51:49.447Z,7.44
2023-03-02T09:54:38.259Z,7.52
2023-03-02T09:57:31.621Z,7.52
2023-03-02T10:00:29.855Z,7.53
2023-03-02T10:03:23.652Z,7.61
2023-03-02T10:06:12.834Z,7.72
2023-03-02T10:09:02.231Z,7.80
2023-03-02T10:11:57.069Z,7.86
2023-03-02T10:15:03.601Z,7.80
2023-03-02T10:17:56.217Z,7.91
2023-03-02T10:20:55.821Z,7.87
2023-03-02T10:24:05.319Z,7.86
2023-03-02T10:26:55.975Z,7.93
2023-03-02T10:29:55.899Z,7.86
2023-03-02T10:32:49.406Z,7.84
2023-03-02T10:35:39.514Z,7.85
2023-03-02T10:38:29.038Z,7.89
2023-03-02T10:41:36.564Z,7.90
2023-03-02T10:44:28.637Z,8.03
2023-03-02T10:47:28.140Z,8.05
2023-03-02T10:50:23.282Z,8.03
2023-03-02T10:53:18.078Z,8.00
2023-03-02T10:56:17.819Z,8.00
2023-03-02T10:59:31.909Z,8.07
2023-03-02T11:02:25.634Z,8.10
2023-03-02T11:05:28.560Z,8.05
2023-03-02T11:08:19.997Z,8.07
2023-03-02T11:11:23.564Z,8.12
2023-03-02T11:14:16.734Z,8.21
2023-03-02T11:17:27.559Z,8.25
2023-03-02T11:20:29.626Z,8.30
2023-03-02T11:23:24.054Z,8.32
2023-03-02T11:26:21.269Z,8.33
2023-03-02T11:29:31.263Z,8.31
2023-03-02T11:32:29.129Z,8.34
2023-03-02T11:35:43.086Z,8.26
2023-03-02T11:38:50.561Z,8.23
2023-03-02T11:41:41.456Z,8.27
2023-03-02T11:44:31.040Z,8.23
2023-03-02T11:47:20.690Z,8.16
2023-03-02T11:50:11.564Z,8.20
2023-03-02T11:53:03.930Z,8.26
2023-03-02T11:55:53.001Z,8.38
2023-03-02T11:58:43.622Z,8.48
2023-03-02T12:01:34.649Z,8.38
2023-03-02T12:04:28.397Z,8.35
2023-03-02T12:07:25.453Z,8.37
2023-03-02T12:10:28.439Z,8.35
2023-03-02T12:13:23.599Z,8.35
2023-03-02T12:16:38.699Z,8.27
2023-03-02T12:19:29.410Z,8.24
2023-03-02T12:22:29.623Z,8.26
2023-03-02T12:25:18.609Z,8.28
2023-03-02T12:28:31.124Z,8.27
2023-03-02T12:31:20.280Z,8.29
2023-03-02T12:34:39.410Z,8.28
2023-03-02T12:37:31.965Z,8.30
2023-03-02T12:40:42.557Z,8.38
2023-03-02T12:43:33.860Z,8.38
2023-03-02T12:46:27.137Z,8.38
2023-03-02T12:49:40.041Z,8.35
2023-03-02T12:52:29.357Z,8.27
2023-03-02T12:55:20.955Z,8.26
2023-03-02T12:58:26.095Z,8.19
2023-03-02T13:01:20.819Z,8.18
2023-03-02T13:04:22.909Z,8.19
2023-03-02T13:07:19.547Z,8.21
2023-03-02T13:10:22.026Z,8.18
2023-03-02T13:13:22.242Z,8.16
2023-03-02T13:16:28.328Z,8.18
2023-03-02T13:19:17.414Z,8.17
2023-03-02T13:22:08.728Z,8.15
2023-03-02T13:25:05.617Z,8.15
2023-03-02T13:28:07.787Z,8.13
2023-03-02T13:31:02.038Z,8.10
2023-03-02T13:33:52.542Z,8.03
2023-03-02T13:36:41.519Z,7.96
2023-03-02T13:39:32.164Z,7.92
2023-03-02T13:42:47.923Z,7.87
2023-03-02T13:45:37.924Z,7.86
2023-03-02T13:48:30.370Z,7.80
2023-03-02T13:51:19.566Z,7.76
2023-03-02T13:54:25.093Z,7.73
2023-03-02T13:57:16.750Z,7.79
2023-03-02T14:00:16.229Z,7.78
2023-03-02T14:03:12.479Z,7.78
2023-03-02T14:06:01.880Z,7.80
2023-03-02T14:08:50.949Z,7.85
2023-03-02T14:11:51.404Z,7.87
2023-03-02T14:14:45.287Z,7.81
2023-03-02T14:17:35.048Z,7.74
2023-03-02T14:20:23.991Z,7.71
2023-03-02T14:23:13.261Z,7.63
2023-03-02T14:26:02.719Z,7.59
2023-03-02T14:29:04.700Z,7.46
2023-03-02T14:31:55.428Z,7.37
2023-03-02T14:34:44.037Z,7.31
2023-03-02T14:37:33.102Z,7.22
2023-03-02T14:40:27.526Z,7.14
2023-03-02T14:43:18.768Z,7.04
2023-03-02T14:46:12.174Z,6.94
2023-03-02T14:49:01.393Z,6.85
2023-03-02T14:52:03.592Z,6.76
2023-03-02T14:54:55.949Z,6.64
2023-03-02T14:57:44.700Z,6.57
2023-03-02T15:00:34.867Z,6.54
2023-03-02T15:03:25.888Z,6.49
2023-03-02T15:06:38.944Z,6.40
2023-03-02T15:09:28.588Z,6.33
2023-03-02T15:12:17.659Z,6.25
2023-03-02T15:15:07.202Z,6.11
2023-03-02T15:17:56.168Z,6.11
2023-03-02T15:20:45.347Z,6.07
2023-03-02T15:23:35.431Z,6.00
2023-03-02T15:26:29.216Z,5.92
2023-03-02T15:29:19.227Z,5.84
2023-03-02T15:32:08.201Z,5.71
2023-03-02T15:34:57.859Z,5.60
2023-03-02T15:37:48.012Z,5.48
2023-03-02T15:40:37.668Z,5.36
2023-03-02T15:43:26.862Z,5.24
2023-03-02T15:46:15.884Z,5.15
2023-03-02T15:49:09.477Z,5.03
2023-03-02T15:51:58.628Z,4.90
2023-03-02T15:54:51.010Z,4.80
2023-03-02T15:57:41.013Z,4.73
2023-03-02T16:00:30.121Z,4.63
2023-03-02T16:03:22.990Z,4.55
2023-03-02T16:06:13.459Z,4.49
2023-03-02T16:09:03.105Z,4.36
2023-03-02T16:11:54.514Z,4.24
2023-03-02T16:14:44.413Z,4.15
2023-03-02T16:17:33.824Z,4.00
2023-03-02T16:20:22.917Z,3.85
2023-03-02T16:23:13.365Z,3.71
2023-03-02T16:26:10.164Z,3.57
2023-03-02T16:28:59.647Z,3.38
2023-03-02T16:31:48.888Z,3.17
2023-03-02T16:34:37.920Z,3.03
2023-03-02T16:37:27.037Z,2.95
2023-03-02T16:40:16.856Z,2.82
2023-03-02T16:43:10.911Z,2.69
2023-03-02T16:46:00.159Z,2.56
2023-03-02T16:48:49.479Z,2.51
2023-03-02T16:51:38.736Z,2.43
2023-03-02T16:54:28.191Z,2.35
2023-03-02T16:57:17.737Z,2.30
2023-03-02T17:00:08.595Z,2.07
2023-03-02T17:02:57.635Z,1.95
2023-03-02T17:05:48.933Z,1.82
2023-03-02T17:08:37.860Z,1.63
2023-03-02T17:11:32.706Z,1.51
2023-03-02T17:14:21.820Z,1.44
2023-03-02T17:17:11.049Z,1.38
2023-03-02T17:20:00.353Z,1.34
2023-03-02T17:22:49.433Z,1.28
2023-03-02T17:25:39.121Z,1.22
2023-03-02T17:28:28.566Z,1.06
2023-03-02T17:31:17.599Z,0.96
2023-03-02T17:34:11.434Z,0.93
2023-03-02T17:37:00.802Z,0.87
2023-03-02T17:39:51.022Z,0.80
2023-03-02T17:42:40.572Z,0.73
2023-03-02T17:45:29.776Z,0.61
2023-03-02T17:48:54.050Z,0.59
2023-03-02T17:51:43.546Z,0.54
2023-03-02T17:54:32.963Z,0.51
2023-03-02T17:57:23.178Z,0.49
2023-03-02T18:00:14.851Z,0.49
2023-03-02T18:03:05.766Z,0.53
2023-03-02T18:05:55.870Z,0.62
2023-03-02T18:08:45.134Z,0.64
2023-03-02T18:11:35.006Z,0.77
2023-03-02T18:14:28.518Z,0.89
2023-03-02T18:17:20.188Z,1.01
2023-03-02T18:20:10.421Z,1.28
2023-03-02T18:23:03.036Z,1.44
2023-03-02T18:25:54.840Z,1.57
2023-03-02T18:28:44.203Z,1.63
2023-03-02T18:31:34.542Z,1.72
2023-03-02T18:34:24.175Z,1.86
2023-03-02T18:37:14.538Z,1.94
2023-03-02T18:40:07.104Z,2.00
2023-03-02T18:42:56.662Z,2.05
2023-03-02T18:45:46.132Z,2.13
2023-03-02T18:48:37.715Z,2.14
2023-03-02T18:51:27.550Z,2.18
2023-03-02T18:54:17.152Z,2.18
2023-03-02T18:57:07.571Z,2.18
2023-03-02T18:59:56.894Z,2.17
2023-03-02T19:02:46.288Z,2.14
2023-03-02T19:05:39.652Z,2.09
2023-03-02T19:09:15.316Z,2.07
2023-03-02T19:12:54.317Z,2.00
2023-03-02T19:16:29.003Z,1.97
2023-03-02T19:20:02.727Z,1.85
2023-03-02T19:23:36.286Z,1.74
2023-03-02T19:27:11.510Z,1.62
2023-03-02T19:30:45.114Z,1.38
2023-03-02T19:34:19.494Z,1.23
2023-03-02T19:37:55.077Z,1.08
2023-03-02T19:41:29.140Z,1.09
2023-03-02T19:45:03.504Z,1.15
2023-03-02T19:48:42.783Z,1.09
2023-03-02T19:52:16.221Z,1.10
2023-03-02T19:55:51.583Z,1.04
2023-03-02T19:59:51.130Z,1.09
2023-03-02T20:03:53.702Z,1.04
2023-03-02T20:07:54.345Z,1.17
2023-03-02T20:12:04.309Z,1.15
2023-03-02T20:16:03.235Z,1.19
2023-03-02T20:20:06.285Z,1.32
2023-03-02T20:24:06.054Z,1.39
2023-03-02T20:28:08.644Z,1.42
2023-03-02T20:32:07.220Z,1.40
2023-03-02T20:36:09.831Z,1.36
2023-03-02T20:40:09.257Z,1.33
2023-03-02T20:44:14.258Z,1.32
2023-03-02T20:48:14.327Z,1.31
2023-03-02T20:52:16.864Z,1.34
2023-03-02T20:56:16.114Z,1.26
2023-03-02T21:00:04.459Z,1.23
2023-03-02T21:03:52.415Z,1.24
2023-03-02T21:07:41.985Z,1.20
2023-03-02T21:11:27.931Z,1.12
2023-03-02T21:15:15.880Z,1.09
2023-03-02T21:19:03.362Z,1.11
2023-03-02T21:22:50.966Z,1.08
2023-03-02T21:26:38.792Z,1.10
2023-03-02T21:30:25.310Z,1.11
2023-03-02T21:34:12.979Z,1.15
2023-03-02T21:38:01.038Z,1.21
2023-03-02T21:41:48.507Z,1.22
2023-03-02T21:45:36.227Z,1.23
2023-03-02T21:49:23.818Z,1.24
2023-03-02T21:53:11.386Z,1.21
2023-03-02T21:57:01.536Z,1.27
2023-03-02T22:00:48.908Z,1.39
2023-03-02T22:04:36.397Z,1.45
2023-03-02T22:08:24.058Z,1.45
2023-03-02T22:12:11.909Z,1.43
2023-03-02T22:15:59.409Z,1.23
2023-03-02T22:19:50.479Z,1.17
2023-03-02T22:23:37.948Z,1.13
2023-03-02T22:27:25.469Z,1.06
2023-03-02T22:31:15.870Z,1.00
2023-03-02T22:35:06.074Z,0.90
2023-03-02T22:38:54.218Z,0.76
2023-03-02T22:42:40.250Z,0.69
2023-03-02T22:46:29.705Z,0.67
2023-03-02T22:50:16.085Z,0.65
2023-03-02T22:54:03.431Z,0.62
2023-03-02T22:57:49.468Z,0.61
2023-03-02T23:01:37.174Z,0.60
2023-03-02T23:05:23.056Z,0.46
2023-03-02T23:09:09.090Z,0.36
2023-03-02T23:12:55.162Z,0.20
2023-03-02T23:16:43.613Z,0.05
2023-03-02T23:20:38.509Z,0.02
2023-03-02T23:24:30.686Z,0.04
2023-03-02T23:28:26.692Z,0.02
2023-03-02T23:32:27.519Z,0.03
2023-03-02T23:36:27.685Z,-0.00
2023-03-02T23:40:30.475Z,0.04
2023-03-02T23:44:32.601Z,0.08
2023-03-02T23:48:38.379Z,0.02
2023-03-02T23:52:35.939Z,0.08
2023-03-02T23:56:30.245Z,0.10
